Time;durP1;ratioP1;P1;durP2;ratioP2;P2;SDS_P1;SDS_P2;PMS_P1;PMS_P2;Temp;Humidity;BMP_temperature;BMP_pressure;BME280_temperature;BME280_humidity;BME280_pressure;Samples;Min_cycle;Max_cycle;Signal;HPM_P1;HPM_P2
2022/09/02 00:03:19;;;;;;;0.50;0.30;;;;;;;;;;10465523;28;20210;-71
2022/09/02 00:08:20;;;;;;;0.40;0.20;;;;;;;;;;10494829;28;20227;-71
2022/09/02 00:13:22;;;;;;;0.22;0.22;;;;;;;;;;10493987;28;20217;-71
2022/09/02 00:18:23;;;;;;;0.30;0.30;;;;;;;;;;10461866;28;20206;-71
2022/09/02 00:23:24;;;;;;;0.20;0.20;;;;;;;;;;10493422;28;20210;-71
2022/09/02 00:28:26;;;;;;;0.30;0.30;;;;;;;;;;10494176;28;20328;-71
2022/09/02 00:33:27;;;;;;;0.40;0.40;;;;;;;;;;10497824;28;20295;-71
2022/09/02 00:38:28;;;;;;;0.15;0.15;;;;;;;;;;10474659;28;20253;-72
2022/09/02 00:43:40;;;;;;;0.30;0.30;;;;;;;;;;10491957;28;20237;-71
2022/09/02 00:48:44;;;;;;;0.32;0.32;;;;;;;;;;10457212;28;20218;-71
2022/09/02 00:53:46;;;;;;;0.20;0.20;;;;;;;;;;10459391;28;20202;-72
2022/09/02 00:58:49;;;;;;;0.25;0.25;;;;;;;;;;10459929;28;20222;-71
2022/09/02 01:03:50;;;;;;;0.35;0.35;;;;;;;;;;10462500;28;20728;-71
2022/09/02 01:09:06;;;;;;;0.40;0.40;;;;;;;;;;10496064;28;20214;-72
2022/09/02 01:14:08;;;;;;;0.57;0.30;;;;;;;;;;10484911;28;20221;-71
2022/09/02 01:19:15;;;;;;;0.30;0.30;;;;;;;;;;10475519;28;20301;-71
2022/09/02 01:24:18;;;;;;;0.40;0.40;;;;;;;;;;10487668;28;20213;-71
2022/09/02 01:29:20;;;;;;;0.20;0.20;;;;;;;;;;10491378;28;20209;-71
2022/09/02 01:34:21;;;;;;;0.28;0.28;;;;;;;;;;10464720;28;20263;-72
2022/09/02 01:39:22;;;;;;;0.30;0.30;;;;;;;;;;10488347;28;20210;-71
2022/09/02 01:44:26;;;;;;;0.38;0.38;;;;;;;;;;10474983;28;20529;-72
2022/09/02 01:49:27;;;;;;;0.30;0.30;;;;;;;;;;10461661;28;20237;-71
2022/09/02 01:54:29;;;;;;;0.30;0.30;;;;;;;;;;10476710;28;20221;-72
2022/09/02 01:59:31;;;;;;;0.20;0.20;;;;;;;;;;10451458;28;20313;-72
2022/09/02 02:04:33;;;;;;;0.52;0.40;;;;;;;;;;10484644;28;20230;-72
2022/09/02 02:09:34;;;;;;;0.30;0.30;;;;;;;;;;10446045;28;20214;-71
2022/09/02 02:14:36;;;;;;;0.50;0.50;;;;;;;;;;10461795;28;20249;-72
2022/09/02 02:19:38;;;;;;;0.28;0.28;;;;;;;;;;10490776;28;20221;-71
2022/09/02 02:24:39;;;;;;;0.30;0.30;;;;;;;;;;10489685;28;20204;-71
2022/09/02 02:29:40;;;;;;;0.40;0.40;;;;;;;;;;10457153;28;20734;-71
2022/09/02 02:34:42;;;;;;;0.47;0.47;;;;;;;;;;10465203;28;21475;-72
2022/09/02 02:39:43;;;;;;;0.68;0.68;;;;;;;;;;10488954;28;20217;-71
2022/09/02 02:44:45;;;;;;;0.40;0.40;;;;;;;;;;10468541;28;20205;-71
2022/09/02 02:49:47;;;;;;;0.40;0.40;;;;;;;;;;10503383;28;20222;-72
2022/09/02 02:54:49;;;;;;;0.40;0.40;;;;;;;;;;10504039;28;20210;-71
2022/09/02 02:59:50;;;;;;;0.40;0.40;;;;;;;;;;10466755;28;20224;-71
2022/09/02 03:04:53;;;;;;;0.40;0.40;;;;;;;;;;10471648;28;20319;-71
2022/09/02 03:09:54;;;;;;;0.30;0.30;;;;;;;;;;10472933;28;20916;-72
2022/09/02 03:14:56;;;;;;;0.40;0.40;;;;;;;;;;10469731;28;20213;-71
2022/09/02 03:19:59;;;;;;;0.32;0.32;;;;;;;;;;10485487;28;20221;-71
2022/09/02 03:25:04;;;;;;;0.50;0.50;;;;;;;;;;10482976;28;20622;-71
2022/09/02 03:30:09;;;;;;;0.40;0.40;;;;;;;;;;10485540;28;20215;-71
2022/09/02 03:35:12;;;;;;;0.38;0.38;;;;;;;;;;10489085;28;20214;-71
2022/09/02 03:40:21;;;;;;;0.40;0.40;;;;;;;;;;10497333;28;20266;-71
2022/09/02 03:45:23;;;;;;;0.45;0.45;;;;;;;;;;10469599;28;20599;-71
2022/09/02 03:50:26;;;;;;;0.35;0.30;;;;;;;;;;10492842;28;20212;-71
2022/09/02 03:55:28;;;;;;;0.40;0.40;;;;;;;;;;10474867;28;20210;-71
2022/09/02 04:00:30;;;;;;;0.35;0.35;;;;;;;;;;10479700;28;20226;-73
2022/09/02 04:05:35;;;;;;;0.40;0.40;;;;;;;;;;10472777;28;20294;-71
2022/09/02 04:10:37;;;;;;;0.60;0.60;;;;;;;;;;10481677;28;20214;-71
2022/09/02 04:15:42;;;;;;;0.52;0.52;;;;;;;;;;10468333;28;20229;-71
2022/09/02 04:20:44;;;;;;;0.40;0.40;;;;;;;;;;10438017;28;20296;-70
2022/09/02 04:25:45;;;;;;;0.50;0.43;;;;;;;;;;10459925;28;20210;-71
2022/09/02 04:30:49;;;;;;;0.40;0.40;;;;;;;;;;10477408;28;20225;-70
2022/09/02 04:35:51;;;;;;;0.40;0.40;;;;;;;;;;10491616;28;20225;-70
2022/09/02 04:40:53;;;;;;;0.60;0.60;;;;;;;;;;10479259;28;20253;-68
2022/09/02 04:45:54;;;;;;;0.63;0.63;;;;;;;;;;10439375;28;20221;-70
2022/09/02 04:50:55;;;;;;;0.60;0.60;;;;;;;;;;10492145;28;20209;-70
2022/09/02 04:55:56;;;;;;;0.50;0.50;;;;;;;;;;10464557;28;20224;-73
2022/09/02 05:00:58;;;;;;;0.60;0.60;;;;;;;;;;10457838;28;20604;-72
2022/09/02 05:06:01;;;;;;;0.63;0.63;;;;;;;;;;10469424;28;20222;-72
2022/09/02 05:11:06;;;;;;;1.30;1.30;;;;;;;;;;10423533;28;20242;-72
2022/09/02 05:16:08;;;;;;;2.35;0.95;;;;;;;;;;10415295;28;20210;-72
2022/09/02 05:21:09;;;;;;;0.88;0.88;;;;;;;;;;10425477;28;20225;-72
2022/09/02 05:26:11;;;;;;;0.90;0.90;;;;;;;;;;10421000;28;20206;-72
2022/09/02 05:31:14;;;;;;;1.20;1.05;;;;;;;;;;10413083;28;20210;-74
2022/09/02 05:36:19;;;;;;;0.68;0.68;;;;;;;;;;10413883;28;20218;-73
2022/09/02 05:41:22;;;;;;;0.80;0.80;;;;;;;;;;10410753;28;20217;-73
2022/09/02 05:46:26;;;;;;;1.50;1.40;;;;;;;;;;10414496;28;20661;-73
2022/09/02 05:51:30;;;;;;;1.20;1.20;;;;;;;;;;10411272;28;20219;-73
2022/09/02 05:56:31;;;;;;;1.52;1.48;;;;;;;;;;10444256;28;20256;-74
2022/09/02 06:01:33;;;;;;;1.25;1.25;;;;;;;;;;10411590;28;20254;-74
2022/09/02 06:06:37;;;;;;;1.10;1.10;;;;;;;;;;10446919;28;20689;-73
2022/09/02 06:11:44;;;;;;;1.42;1.33;;;;;;;;;;10463706;28;20305;-74
2022/09/02 06:16:49;;;;;;;1.48;1.48;;;;;;;;;;10448834;28;20252;-74
2022/09/02 06:21:56;;;;;;;2.72;1.23;;;;;;;;;;10434817;28;20222;-74
2022/09/02 06:27:00;;;;;;;1.40;1.40;;;;;;;;;;10460372;28;20214;-73
2022/09/02 06:32:03;;;;;;;1.40;1.40;;;;;;;;;;10468812;28;20205;-74
2022/09/02 06:37:06;;;;;;;1.40;1.40;;;;;;;;;;10455225;28;20961;-73
2022/09/02 06:42:13;;;;;;;0.95;0.90;;;;;;;;;;10487704;28;20210;-74
2022/09/02 06:47:33;;;;;;;1.52;0.75;;;;;;;;;;10461627;28;20205;-74
2022/09/02 06:52:34;;;;;;;0.70;0.70;;;;;;;;;;10463896;28;20286;-74
2022/09/02 06:57:35;;;;;;;1.02;1.02;;;;;;;;;;10462264;28;20213;-74
2022/09/02 07:02:42;;;;;;;0.80;0.80;;;;;;;;;;10466843;28;20203;-73
2022/09/02 07:07:46;;;;;;;0.80;0.80;;;;;;;;;;10462643;28;20217;-74
2022/09/02 07:12:49;;;;;;;0.70;0.70;;;;;;;;;;10459784;28;20238;-71
2022/09/02 07:17:52;;;;;;;0.52;0.52;;;;;;;;;;10471144;28;20217;-71
2022/09/02 07:23:05;;;;;;;0.60;0.60;;;;;;;;;;10489906;28;20673;-71
2022/09/02 07:28:10;;;;;;;0.50;0.50;;;;;;;;;;10456035;28;20218;-72
2022/09/02 07:33:13;;;;;;;0.60;0.60;;;;;;;;;;10443305;28;20225;-73
2022/09/02 07:38:15;;;;;;;0.60;0.60;;;;;;;;;;10489725;28;20267;-72
2022/09/02 07:43:17;;;;;;;0.63;0.63;;;;;;;;;;10463693;28;20210;-72
2022/09/02 07:48:18;;;;;;;0.50;0.50;;;;;;;;;;10468221;28;20239;-72
2022/09/02 07:53:21;;;;;;;0.50;0.50;;;;;;;;;;10467808;28;20721;-72
2022/09/02 07:58:24;;;;;;;0.40;0.40;;;;;;;;;;10467038;28;20221;-73
2022/09/02 08:03:26;;;;;;;0.50;0.50;;;;;;;;;;10460743;28;20308;-72
2022/09/02 08:08:29;;;;;;;1.55;0.40;;;;;;;;;;10445457;28;20312;-72
2022/09/02 08:13:30;;;;;;;0.50;0.50;;;;;;;;;;10444984;28;20222;-70
2022/09/02 08:18:32;;;;;;;0.57;0.57;;;;;;;;;;10443279;28;20264;-71
2022/09/02 08:23:33;;;;;;;0.40;0.40;;;;;;;;;;10457023;28;20231;-70
2022/09/02 08:28:34;;;;;;;0.40;0.40;;;;;;;;;;10458800;28;20232;-71
2022/09/02 08:33:35;;;;;;;0.40;0.40;;;;;;;;;;10460332;28;20209;-70
2022/09/02 08:38:36;;;;;;;0.20;0.20;;;;;;;;;;10451577;28;20915;-70
2022/09/02 08:43:42;;;;;;;0.30;0.30;;;;;;;;;;10454418;28;20219;-71
2022/09/02 08:49:19;;;;;;;0.40;0.38;;;;;;;;;;10436933;28;20237;-71
2022/09/02 08:54:23;;;;;;;0.30;0.30;;;;;;;;;;10381631;28;20815;-71
2022/09/02 08:59:26;;;;;;;0.35;0.35;;;;;;;;;;10452369;28;20221;-72
2022/09/02 09:04:46;;;;;;;0.30;0.30;;;;;;;;;;10459094;28;20228;-69
2022/09/02 09:10:07;;;;;;;0.20;0.20;;;;;;;;;;10478821;28;20206;-69
2022/09/02 09:15:13;;;;;;;0.75;0.20;;;;;;;;;;10479644;28;20206;-70
2022/09/02 09:20:19;;;;;;;2.35;0.20;;;;;;;;;;10486389;28;20316;-71
2022/09/02 09:25:20;;;;;;;0.20;0.20;;;;;;;;;;10470539;28;20206;-71
2022/09/02 09:30:22;;;;;;;0.10;0.10;;;;;;;;;;10485087;28;20613;-71
2022/09/02 09:35:23;;;;;;;0.10;0.10;;;;;;;;;;10490658;28;20183;-72
2022/09/02 09:40:26;;;;;;;0.20;0.20;;;;;;;;;;10485411;28;20327;-71
2022/09/02 09:45:33;;;;;;;0.10;0.10;;;;;;;;;;10484717;28;20263;-71
2022/09/02 09:50:34;;;;;;;0.10;0.10;;;;;;;;;;10470102;28;20294;-71
2022/09/02 09:55:48;;;;;;;0.35;0.20;;;;;;;;;;10481126;28;20214;-71
2022/09/02 10:00:55;;;;;;;0.10;0.10;;;;;;;;;;10452281;28;20222;-70
2022/09/02 10:05:59;;;;;;;0.13;0.10;;;;;;;;;;10483169;28;20218;-71
2022/09/02 10:11:02;;;;;;;0.20;0.20;;;;;;;;;;10478567;28;20214;-71
2022/09/02 10:16:25;;;;;;;0.10;0.10;;;;;;;;;;10452703;28;20213;-71
2022/09/02 10:21:50;;;;;;;0.10;0.10;;;;;;;;;;10470220;28;20978;-71
2022/09/02 10:26:53;;;;;;;0.20;0.20;;;;;;;;;;10461981;28;20301;-72
2022/09/02 10:32:17;;;;;;;0.10;0.10;;;;;;;;;;10457014;28;20209;-73
2022/09/02 10:37:23;;;;;;;0.10;0.10;;;;;;;;;;10465299;28;20222;-72
2022/09/02 10:42:35;;;;;;;0.20;0.20;;;;;;;;;;10471543;28;20211;-72
2022/09/02 10:47:37;;;;;;;0.20;0.20;;;;;;;;;;10472687;28;20218;-72
2022/09/02 10:52:41;;;;;;;0.10;0.10;;;;;;;;;;10474942;28;20291;-72
2022/09/02 10:57:42;;;;;;;0.10;0.10;;;;;;;;;;10484487;28;20225;-72
2022/09/02 11:02:59;;;;;;;0.52;0.10;;;;;;;;;;10474021;28;20236;-71
2022/09/02 11:08:03;;;;;;;0.10;0.10;;;;;;;;;;10484500;28;20246;-71
2022/09/02 11:13:06;;;;;;;0.40;0.10;;;;;;;;;;10477663;28;20236;-72
2022/09/02 11:18:21;;;;;;;0.10;0.10;;;;;;;;;;10454064;28;20862;-72
2022/09/02 11:23:28;;;;;;;0.10;0.10;;;;;;;;;;10452799;28;20216;-71
2022/09/02 11:28:37;;;;;;;0.10;0.10;;;;;;;;;;10485578;28;20242;-72
2022/09/02 11:33:57;;;;;;;0.30;0.10;;;;;;;;;;10482089;28;20229;-72
2022/09/02 11:39:02;;;;;;;0.10;0.10;;;;;;;;;;10483264;28;20221;-72
2022/09/02 11:44:13;;;;;;;0.10;0.10;;;;;;;;;;10480728;28;20301;-73
2022/09/02 11:49:33;;;;;;;0.10;0.10;;;;;;;;;;10466928;28;20222;-72
2022/09/02 11:54:45;;;;;;;0.10;0.10;;;;;;;;;;10458956;28;20275;-72
2022/09/02 11:59:52;;;;;;;0.10;0.10;;;;;;;;;;10485779;28;20226;-71
2022/09/02 12:05:13;;;;;;;0.10;0.10;;;;;;;;;;10488339;28;20233;-72
2022/09/02 12:10:33;;;;;;;0.10;0.10;;;;;;;;;;10472821;28;20217;-73
2022/09/02 12:15:35;;;;;;;0.10;0.10;;;;;;;;;;10462188;28;20221;-69
2022/09/02 12:20:43;;;;;;;0.10;0.10;;;;;;;;;;10454263;28;20305;-71
2022/09/02 12:25:48;;;;;;;0.20;0.20;;;;;;;;;;10484428;28;20210;-70
2022/09/02 12:30:55;;;;;;;0.15;0.15;;;;;;;;;;10466462;28;20233;-70
2022/09/02 12:35:57;;;;;;;0.10;0.10;;;;;;;;;;10486302;28;20213;-70
2022/09/02 12:41:04;;;;;;;0.10;0.10;;;;;;;;;;10489699;28;20218;-71
2022/09/02 12:46:13;;;;;;;0.30;0.20;;;;;;;;;;10453353;28;20230;-71
2022/09/02 12:51:34;;;;;;;0.10;0.10;;;;;;;;;;10478657;28;20609;-71
2022/09/02 12:56:35;;;;;;;0.10;0.10;;;;;;;;;;10483392;28;20210;-72
2022/09/02 13:01:40;;;;;;;0.10;0.10;;;;;;;;;;10438515;28;21003;-73
2022/09/02 13:06:44;;;;;;;0.10;0.10;;;;;;;;;;10469509;28;20223;-71
2022/09/02 13:12:03;;;;;;;0.03;0.03;;;;;;;;;;10427009;28;20217;-73
2022/09/02 13:17:16;;;;;;;0.10;0.10;;;;;;;;;;10456824;28;21231;-72
2022/09/02 13:22:36;;;;;;;0.10;0.10;;;;;;;;;;10467588;28;20218;-72
2022/09/02 13:27:46;;;;;;;0.10;0.10;;;;;;;;;;10474411;28;20208;-72
2022/09/02 13:33:01;;;;;;;0.10;0.10;;;;;;;;;;10479936;28;20219;-72
2022/09/02 13:38:02;;;;;;;0.10;0.10;;;;;;;;;;10462172;28;20341;-72
2022/09/02 13:43:25;;;;;;;0.10;0.10;;;;;;;;;;10482884;28;20214;-72
2022/09/02 13:48:31;;;;;;;0.10;0.10;;;;;;;;;;10479981;28;20218;-71
2022/09/02 13:53:34;;;;;;;0.10;0.10;;;;;;;;;;10479492;28;20206;-72
2022/09/02 13:58:45;;;;;;;0.17;0.17;;;;;;;;;;10479607;28;20218;-73
2022/09/02 14:03:53;;;;;;;0.15;0.15;;;;;;;;;;10458169;28;20299;-72
2022/09/02 14:08:57;;;;;;;0.20;0.20;;;;;;;;;;10479628;28;20222;-72
2022/09/02 14:13:59;;;;;;;0.10;0.10;;;;;;;;;;10478038;28;20225;-71
2022/09/02 14:19:04;;;;;;;0.20;0.20;;;;;;;;;;10479269;28;20218;-66
2022/09/02 14:24:11;;;;;;;0.10;0.10;;;;;;;;;;10480279;28;20267;-69
2022/09/02 14:29:13;;;;;;;0.20;0.20;;;;;;;;;;10476307;28;20198;-73
2022/09/02 14:34:33;;;;;;;0.25;0.25;;;;;;;;;;10474016;28;20209;-72
2022/09/02 14:39:50;;;;;;;0.10;0.10;;;;;;;;;;10467932;28;20212;-72
2022/09/02 14:44:51;;;;;;;0.20;0.20;;;;;;;;;;10480603;28;20237;-73
2022/09/02 14:49:54;;;;;;;0.20;0.20;;;;;;;;;;10481381;28;20769;-72
2022/09/02 14:54:56;;;;;;;0.20;0.20;;;;;;;;;;10474535;28;20243;-72
2022/09/02 15:00:01;;;;;;;0.10;0.10;;;;;;;;;;10475148;28;20326;-71
2022/09/02 15:05:04;;;;;;;0.20;0.20;;;;;;;;;;10472639;28;20581;-72
2022/09/02 15:10:08;;;;;;;0.20;0.20;;;;;;;;;;10476463;28;20698;-71
2022/09/02 15:15:09;;;;;;;0.20;0.20;;;;;;;;;;10473934;28;20306;-72
2022/09/02 15:20:10;;;;;;;0.20;0.20;;;;;;;;;;10476760;28;20198;-71
2022/09/02 15:25:11;;;;;;;0.20;0.20;;;;;;;;;;10451054;28;20174;-71
2022/09/02 15:30:12;;;;;;;0.20;0.20;;;;;;;;;;10454487;28;20181;-71
2022/09/02 15:35:13;;;;;;;0.20;0.20;;;;;;;;;;10471406;28;20199;-72
2022/09/02 15:40:15;;;;;;;0.30;0.30;;;;;;;;;;10445911;28;20240;-69
2022/09/02 15:45:16;;;;;;;0.10;0.10;;;;;;;;;;10458379;28;20182;-71
2022/09/02 15:50:17;;;;;;;0.20;0.20;;;;;;;;;;10488965;28;20213;-72
2022/09/02 15:55:18;;;;;;;0.20;0.20;;;;;;;;;;10483152;28;20186;-72
2022/09/02 16:00:19;;;;;;;0.20;0.20;;;;;;;;;;10458887;28;20217;-70
2022/09/02 16:05:20;;;;;;;0.20;0.20;;;;;;;;;;10490493;28;20299;-73
2022/09/02 16:10:21;;;;;;;0.30;0.30;;;;;;;;;;10456810;28;20192;-72
2022/09/02 16:15:22;;;;;;;0.30;0.30;;;;;;;;;;10471529;28;20926;-70
2022/09/02 16:20:23;;;;;;;0.20;0.20;;;;;;;;;;10453581;28;20296;-71
2022/09/02 16:25:25;;;;;;;0.20;0.20;;;;;;;;;;10471377;28;22145;-72
2022/09/02 16:30:26;;;;;;;0.20;0.20;;;;;;;;;;10483857;28;20279;-72
2022/09/02 16:35:27;;;;;;;0.73;0.73;;;;;;;;;;10475771;28;20296;-72
2022/09/02 16:40:28;;;;;;;0.35;0.35;;;;;;;;;;10458123;28;20312;-74
2022/09/02 16:45:29;;;;;;;0.60;0.60;;;;;;;;;;10453117;28;20214;-73
2022/09/02 16:50:30;;;;;;;1.23;0.50;;;;;;;;;;10488452;28;20217;-74
2022/09/02 16:55:31;;;;;;;0.40;0.40;;;;;;;;;;10478917;28;20685;-72
2022/09/02 17:00:32;;;;;;;0.20;0.20;;;;;;;;;;10484440;28;20589;-73
2022/09/02 17:05:33;;;;;;;0.30;0.30;;;;;;;;;;10470505;28;20222;-73
2022/09/02 17:10:35;;;;;;;0.90;0.30;;;;;;;;;;10443488;28;20275;-73
2022/09/02 17:15:36;;;;;;;0.30;0.30;;;;;;;;;;10434351;28;20298;-73
2022/09/02 17:20:38;;;;;;;0.30;0.30;;;;;;;;;;10419015;28;20226;-73
2022/09/02 17:25:39;;;;;;;0.20;0.20;;;;;;;;;;10445845;28;21001;-73
2022/09/02 17:30:40;;;;;;;0.20;0.20;;;;;;;;;;10419512;28;20222;-74
2022/09/02 17:35:41;;;;;;;1.10;0.40;;;;;;;;;;10443660;28;20219;-72
2022/09/02 17:46:06;;;;;;;0.30;0.30;;;;;;;;;;10439327;28;20207;-74
2022/09/02 17:51:07;;;;;;;0.30;0.30;;;;;;;;;;10445526;28;20233;-72
2022/09/02 17:56:28;;;;;;;0.40;0.40;;;;;;;;;;10444697;28;20207;-73
2022/09/02 18:01:30;;;;;;;0.50;0.50;;;;;;;;;;10444048;28;20222;-73
2022/09/02 18:06:35;;;;;;;0.30;0.30;;;;;;;;;;10462687;28;20258;-77
2022/09/02 18:11:38;;;;;;;0.30;0.30;;;;;;;;;;10483667;28;20224;-75
2022/09/02 18:16:47;;;;;;;0.32;0.32;;;;;;;;;;10463085;28;20224;-74
2022/09/02 18:22:27;;;;;;;0.30;0.30;;;;;;;;;;10487119;28;21020;-72
2022/09/02 18:27:36;;;;;;;0.40;0.40;;;;;;;;;;10316124;28;20279;-70
2022/09/02 18:32:49;;;;;;;0.50;0.50;;;;;;;;;;10333491;28;20758;-71
2022/09/02 18:38:08;;;;;;;0.45;0.45;;;;;;;;;;10322869;28;20231;-70
2022/09/02 18:43:24;;;;;;;0.40;0.40;;;;;;;;;;10332936;28;20216;-73
2022/09/02 18:48:30;;;;;;;0.32;0.32;;;;;;;;;;10314853;28;20248;-71
2022/09/02 18:53:42;;;;;;;0.40;0.40;;;;;;;;;;10318686;28;20212;-71
2022/09/02 18:58:47;;;;;;;0.50;0.50;;;;;;;;;;10458480;28;20221;-72
2022/09/02 19:03:48;;;;;;;0.45;0.45;;;;;;;;;;10487396;28;20728;-73
2022/09/02 19:08:54;;;;;;;0.70;0.70;;;;;;;;;;10488072;28;20308;-71
2022/09/02 19:13:59;;;;;;;0.40;0.40;;;;;;;;;;10480263;28;20229;-75
2022/09/02 19:19:00;;;;;;;0.52;0.52;;;;;;;;;;10494350;28;20260;-72
2022/09/02 19:24:02;;;;;;;0.38;0.38;;;;;;;;;;10488532;28;20206;-72
2022/09/02 19:29:05;;;;;;;0.47;0.47;;;;;;;;;;10453682;28;20253;-72
2022/09/02 19:34:07;;;;;;;0.45;0.45;;;;;;;;;;10461425;28;20223;-73
2022/09/02 19:39:08;;;;;;;0.40;0.40;;;;;;;;;;10494184;28;20272;-78
2022/09/02 19:44:13;;;;;;;0.52;0.52;;;;;;;;;;10473364;28;20884;-75
2022/09/02 19:49:14;;;;;;;0.35;0.35;;;;;;;;;;10492829;28;20210;-77
2022/09/02 19:54:17;;;;;;;0.40;0.40;;;;;;;;;;10492165;28;20201;-72
2022/09/02 19:59:18;;;;;;;0.40;0.40;;;;;;;;;;10490286;28;20214;-74
2022/09/02 20:04:19;;;;;;;0.32;0.32;;;;;;;;;;10478553;28;20233;-75
2022/09/02 20:09:20;;;;;;;0.47;0.45;;;;;;;;;;10488836;28;20217;-70
2022/09/02 20:14:21;;;;;;;0.30;0.30;;;;;;;;;;10486678;28;20210;-72
2022/09/02 20:19:22;;;;;;;0.40;0.40;;;;;;;;;;10490864;28;20213;-75
2022/09/02 20:24:26;;;;;;;0.32;0.32;;;;;;;;;;10494690;28;20212;-73
2022/09/02 20:29:29;;;;;;;0.40;0.40;;;;;;;;;;10483502;28;20225;-75
2022/09/02 20:34:36;;;;;;;0.30;0.30;;;;;;;;;;10480918;28;20255;-73
2022/09/02 20:39:43;;;;;;;0.25;0.25;;;;;;;;;;10457151;28;20222;-72
2022/09/02 20:44:51;;;;;;;0.30;0.30;;;;;;;;;;10480082;28;20210;-73
2022/09/02 20:50:11;;;;;;;0.50;0.50;;;;;;;;;;10462529;28;20221;-72
2022/09/02 20:55:17;;;;;;;0.22;0.22;;;;;;;;;;10466321;28;20210;-70
2022/09/02 21:00:22;;;;;;;0.30;0.30;;;;;;;;;;10483118;28;21560;-70
2022/09/02 21:05:26;;;;;;;0.47;0.47;;;;;;;;;;10481290;28;20229;-70
2022/09/02 21:10:32;;;;;;;0.30;0.30;;;;;;;;;;10486434;28;20209;-73
2022/09/02 21:15:48;;;;;;;0.40;0.40;;;;;;;;;;10491971;28;20210;-75
2022/09/02 21:20:52;;;;;;;0.30;0.30;;;;;;;;;;10490606;28;20217;-74
2022/09/02 21:25:55;;;;;;;0.30;0.30;;;;;;;;;;10491767;28;20304;-73
2022/09/02 21:31:03;;;;;;;0.20;0.20;;;;;;;;;;10481553;28;20355;-71
2022/09/02 21:36:04;;;;;;;0.20;0.20;;;;;;;;;;10470914;28;20214;-71
2022/09/02 21:41:08;;;;;;;0.22;0.22;;;;;;;;;;10495855;28;20313;-71
2022/09/02 21:46:20;;;;;;;0.20;0.20;;;;;;;;;;10447827;28;20209;-72
2022/09/02 21:51:26;;;;;;;0.30;0.30;;;;;;;;;;10490206;28;20297;-71
2022/09/02 21:56:35;;;;;;;0.30;0.30;;;;;;;;;;10491143;28;20241;-71
2022/09/02 22:01:38;;;;;;;0.20;0.20;;;;;;;;;;10493875;28;20223;-71
2022/09/02 22:06:50;;;;;;;0.43;0.30;;;;;;;;;;10460189;28;20727;-71
2022/09/02 22:11:59;;;;;;;0.30;0.30;;;;;;;;;;10489840;28;20218;-71
2022/09/02 22:17:13;;;;;;;0.30;0.30;;;;;;;;;;10491514;28;20216;-71
2022/09/02 22:22:23;;;;;;;0.20;0.20;;;;;;;;;;10493794;28;20310;-70
2022/09/02 22:27:31;;;;;;;0.30;0.30;;;;;;;;;;10491040;28;20217;-70
2022/09/02 22:32:36;;;;;;;0.30;0.30;;;;;;;;;;10484188;28;20213;-72
2022/09/02 22:37:51;;;;;;;0.20;0.20;;;;;;;;;;10489829;28;20209;-71
2022/09/02 22:42:57;;;;;;;1.38;0.35;;;;;;;;;;10482502;28;20210;-71
2022/09/02 22:53:20;;;;;;;0.20;0.20;;;;;;;;;;10482437;28;20321;-71
2022/09/02 22:58:37;;;;;;;0.95;0.20;;;;;;;;;;10494286;28;20312;-71
2022/09/02 23:03:52;;;;;;;0.20;0.20;;;;;;;;;;10495144;28;20593;-71
2022/09/02 23:08:56;;;;;;;0.20;0.20;;;;;;;;;;10492666;28;20882;-71
2022/09/02 23:14:18;;;;;;;0.20;0.20;;;;;;;;;;10495431;28;20209;-71
2022/09/02 23:19:25;;;;;;;0.17;0.17;;;;;;;;;;10485702;28;20218;-71
2022/09/02 23:24:26;;;;;;;0.20;0.20;;;;;;;;;;10493241;28;20206;-71
2022/09/02 23:29:27;;;;;;;0.30;0.30;;;;;;;;;;10463132;28;20249;-71
2022/09/02 23:34:47;;;;;;;0.30;0.30;;;;;;;;;;10488537;28;20875;-71
2022/09/02 23:40:10;;;;;;;0.20;0.20;;;;;;;;;;10462159;28;20225;-71
2022/09/02 23:45:20;;;;;;;1.35;0.30;;;;;;;;;;10489525;28;20197;-71
2022/09/02 23:50:57;;;;;;;0.20;0.20;;;;;;;;;;10491881;28;20716;-71
2022/09/02 23:56:18;;;;;;;0.25;0.25;;;;;;;;;;10375015;28;20220;-71
